Latest Coastal Weather Observations for Bougainville Reef

IDQ60701

Issued at 3:43 am EST Friday 1 December 2023 (issued every 10 minutes, with the page automatically refreshed every 10 minutes)

About coastal observations | Map of coastal stations | Coastal observations for QLD | Marine services | Other Formats
Station Details ID: 200840 Name: BOUGAINVILLE REEF Lat: -15.49 Lon: 147.12 Height: 0.0 m
Data from the previous 72 hours. | See also: Recent months for locations in Queensland
Date/Time
EST
Wind Sea
Height
m
Swell Vis
km
Cloud Weather Temp
°C
Press
MSL
hPa
Rain since
9am
mm
Dir  Spd
kts
Gust
kts
Height
m
Period
s
Dir
01/03:30am NE 9 10 - - - - - - - 27.2 1008.5 -
01/03:00am NE 8 10 - - - - - - - 27.3 1008.7 -
01/02:30am NE 10 11 - - - - - - - 27.3 1008.6 -
01/02:00am NE 10 11 - - - - - - - 27.3 1008.6 -
01/01:30am NE 9 10 - - - - - - - 27.3 1009.0 -
01/01:00am NE 11 13 - - - - - - - 27.3 1009.3 -
01/12:30am NE 13 15 - - - - - - - 27.5 1009.5 -
01/12:00am NE 13 14 - - - - - - - 27.4 1009.6 -
 
Date/Time
EST
Wind Sea
Height
m
Swell Vis
km
Cloud Weather Temp
°C
Press
MSL
hPa
Rain since
9am
mm
Dir  Spd
kts
Gust
kts
Height
m
Period
s
Dir
30/11:30pm NE 12 14 - - - - - - - 27.5 1009.6 -
30/11:00pm NE 11 13 - - - - - - - 27.4 1009.7 -
30/10:30pm NE 11 13 - - - - - - - 27.4 1009.7 -
30/10:00pm NNE 11 13 - - - - - - - 27.4 1009.5 -
30/09:30pm NE 10 11 - - - - - - - 27.5 1009.4 -
30/09:00pm NE 9 11 - - - - - - - 27.5 1009.2 -
30/08:30pm NE 7 9 - - - - - - - 27.5 1009.1 -
30/08:00pm NE 6 7 - - - - - - - 27.5 1009.0 -
30/07:30pm ENE 5 6 - - - - - - - 27.4 1008.6 -
30/07:00pm NE 5 6 - - - - - - - 27.6 1008.2 -
30/06:30pm NNE 5 6 - - - - - - - 28.2 1007.8 -
30/06:00pm NNW 6 7 - - - - - - - 29.3 1007.6 -
30/05:30pm NNW 5 7 - - - - - - - 29.7 1007.3 -
30/05:00pm NW 5 7 - - - - - - - 29.6 1007.4 -
30/04:30pm WNW 6 7 - - - - - - - 29.4 1007.3 -
30/04:00pm NW 7 8 - - - - - - - 29.0 1007.4 -
30/03:30pm WNW 8 9 - - - - - - - 28.3 1007.7 -
30/03:00pm WNW 8 9 - - - - - - - 28.0 1008.0 -
30/02:30pm NW 8 10 - - - - - - - 28.0 1008.0 -
30/02:00pm NW 8 10 - - - - - - - 28.1 1008.3 -
30/01:30pm NNW 8 9 - - - - - - - 28.1 1008.8 -
30/01:00pm NNW 8 10 - - - - - - - 28.1 1009.1 -
30/12:30pm NNW 7 9 - - - - - - - 27.9 1009.4 -
30/12:00pm NNW 7 8 - - - - - - - 27.9 1009.7 -
30/11:30am NNW 7 9 - - - - - - - 28.2 1010.2 -
30/11:00am NNW 7 8 - - - - - - - 28.1 1010.6 -
30/10:30am NW 6 8 - - - - - - - 28.1 1011.0 -
30/10:00am NNW 7 9 - - - - - - - 28.4 1011.2 -
30/09:30am NNW 6 8 - - - - - - - 28.3 1011.3 -
30/09:00am N 7 8 - - - - - - - 28.7 1011.3 -
30/08:30am N 8 9 - - - - - - - 28.7 1011.5 -
30/08:00am NNW 7 8 - - - - - - - 29.0 1011.3 -
30/07:30am N 7 8 - - - - - - - 28.8 1011.3 -
30/07:00am N 6 7 - - - - - - - 28.2 1011.0 -
30/06:30am N 7 7 - - - - - - - 27.3 1010.7 -
30/06:00am N 7 8 - - - - - - - 26.9 1010.2 -
30/05:30am N 6 7 - - - - - - - 26.7 1009.8 -
30/05:00am NNE 6 7 - - - - - - - 26.7 1009.4 -
30/04:30am NNE 7 8 - - - - - - - 26.7 1009.0 -
30/04:00am NNE 7 9 - - - - - - - 26.8 1008.9 -
30/03:30am NNE 9 11 - - - - - - - 26.8 1008.8 -
30/03:00am NNE 11 13 - - - - - - - 26.9 1008.5 -
30/02:30am NNE 10 12 - - - - - - - 27.1 1008.4 -
30/02:00am NE 11 13 - - - - - - - 26.8 1008.6 -
30/01:30am NE 12 13 - - - - - - - 27.0 1008.9 -
30/01:00am NE 11 12 - - - - - - - 27.2 1009.1 -
30/12:30am NE 11 12 - - - - - - - 27.3 1009.4 -
30/12:00am NE 9 11 - - - - - - - 27.5 1009.9 -
 
Date/Time
EST
Wind Sea
Height
m
Swell Vis
km
Cloud Weather Temp
°C
Press
MSL
hPa
Rain since
9am
mm
Dir  Spd
kts
Gust
kts
Height
m
Period
s
Dir
29/11:30pm NE 10 11 - - - - - - - 27.4 1010.3 -
29/11:00pm ENE 11 12 - - - - - - - 27.4 1010.5 -
29/10:30pm ENE 11 11 - - - - - - - 27.6 1010.7 -
29/10:00pm ENE 10 11 - - - - - - - 27.5 1010.5 -
29/09:30pm ENE 11 13 - - - - - - - 27.5 1010.2 -
29/09:00pm ENE 11 13 - - - - - - - 27.7 1010.0 -
29/08:30pm ENE 11 12 - - - - - - - 27.5 1009.9 -
29/08:00pm ENE 5 11 - - - - - - - 27.6 1009.8 -
29/07:30pm ENE 10 11 - - - - - - - 27.7 1009.4 -
29/07:00pm E 9 11 - - - - - - - 27.6 1009.2 -
29/06:30pm E 8 10 - - - - - - - 27.7 1008.9 -
29/06:00pm E 7 9 - - - - - - - 27.7 1008.6 -
29/05:30pm E 6 8 - - - - - - - 27.8 1008.4 -
29/05:00pm E 6 7 - - - - - - - 27.8 1008.0 -
29/04:30pm ENE 5 6 - - - - - - - 27.8 1008.0 -
29/04:00pm E 4 5 - - - - - - - 27.9 1008.1 -
29/03:30pm CALM 0 0 - - - - - - - 27.8 1008.2 -
29/03:00pm CALM 0 0 - - - - - - - 27.9 1008.4 -
29/02:30pm CALM 0 0 - - - - - - - 28.3 1008.8 -
29/02:00pm CALM 0 0 - - - - - - - 27.7 1008.9 -
29/01:30pm CALM 0 0 - - - - - - - 28.1 1009.2 -
29/01:00pm CALM 0 0 - - - - - - - 29.8 1009.6 -
29/12:30pm CALM 0 0 - - - - - - - 29.0 1009.7 -
29/12:00pm CALM 0 0 - - - - - - - 27.7 1009.9 -
29/11:30am ENE 1 4 - - - - - - - 28.4 1010.2 -
29/11:00am NE 2 4 - - - - - - - 28.5 1010.3 -
29/10:30am NE 4 5 - - - - - - - 28.3 1010.6 -
29/10:00am NNE 5 6 - - - - - - - 28.6 1010.9 -
29/09:30am NNE 6 7 - - - - - - - 28.3 1011.1 -
29/09:00am NNE 5 5 - - - - - - - 29.2 1011.4 -
29/08:30am NNE 5 6 - - - - - - - 29.2 1011.3 -
29/08:00am NNE 5 6 - - - - - - - 29.2 1011.2 -
29/07:30am NNE 5 6 - - - - - - - 28.2 1010.9 -
29/07:00am NNE 5 6 - - - - - - - 27.6 1010.6 -
29/06:30am NNE 6 7 - - - - - - - 27.0 1010.3 -
29/06:00am NNE 7 8 - - - - - - - 26.7 1009.9 -
29/05:30am NE 7 8 - - - - - - - 26.7 1009.4 -
29/05:00am NNE 8 9 - - - - - - - 26.7 1008.8 -
29/04:30am NNE 8 9 - - - - - - - 26.7 1008.6 -
29/04:00am NNE 7 8 - - - - - - - 26.8 1008.6 -
29/03:30am NNE 7 9 - - - - - - - 26.7 1008.7 -
29/03:00am NNE 9 10 - - - - - - - 26.8 1008.7 -
29/02:30am NNE 8 10 - - - - - - - 26.8 1008.8 -
29/02:00am NNE 9 11 - - - - - - - 26.7 1008.7 -
29/01:30am NNE 8 9 - - - - - - - 26.7 1008.8 -
29/01:00am NNE 8 9 - - - - - - - 26.9 1009.1 -
29/12:30am NE 9 10 - - - - - - - 26.9 1009.4 -
29/12:00am NE 8 9 - - - - - - - 27.1 1009.7 -
 
Date/Time
EST
Wind Sea
Height
m
Swell Vis
km
Cloud Weather Temp
°C
Press
MSL
hPa
Rain since
9am
mm
Dir  Spd
kts
Gust
kts
Height
m
Period
s
Dir
28/11:30pm NE 8 9 - - - - - - - 27.0 1010.1 -
28/11:00pm NE 8 9 - - - - - - - 27.0 1010.3 -
28/10:30pm NE 9 11 - - - - - - - 27.1 1010.5 -
28/10:00pm NE 9 11 - - - - - - - 27.1 1010.4 -
28/09:30pm NE 11 13 - - - - - - - 27.3 1010.3 -
28/09:00pm NE 11 13 - - - - - - - 27.3 1010.2 -
28/08:30pm NE 11 14 - - - - - - - 27.3 1010.0 -
28/08:00pm NE 13 15 - - - - - - - 27.3 1009.9 -
28/07:30pm NE 13 14 - - - - - - - 27.3 1009.8 -
28/07:00pm ENE 11 13 - - - - - - - 27.3 1009.8 -
28/06:30pm ENE 11 11 - - - - - - - 27.3 1009.6 -
28/06:00pm ENE 9 11 - - - - - - - 27.3 1009.4 -
28/05:30pm E 8 9 - - - - - - - 27.3 1009.2 -
28/05:00pm E 9 10 - - - - - - - 27.3 1009.0 -
28/04:30pm E 9 10 - - - - - - - 27.3 1009.0 -
28/04:00pm E 9 10 - - - - - - - 27.4 1009.0 -
28/03:30pm E 9 10 - - - - - - - 27.5 1009.2 -
28/03:00pm E 10 12 - - - - - - - 27.4 1009.4 -
28/02:30pm ENE 10 11 - - - - - - - 27.3 1009.6 -
28/02:00pm E 9 11 - - - - - - - 27.3 1010.0 -
28/01:30pm E 11 11 - - - - - - - 27.4 1010.1 -
28/01:00pm E 10 11 - - - - - - - 27.4 1010.2 -
28/12:30pm ENE 10 11 - - - - - - - 27.4 1010.6 -
28/12:00pm ENE 11 12 - - - - - - - 27.5 1011.0 -
28/11:30am E 11 13 - - - - - - - 27.3 1011.2 -
28/11:00am E 11 13 - - - - - - - 27.2 1011.5 -
28/10:30am E 12 13 - - - - - - - 27.0 1011.8 -
28/10:00am ESE 12 13 - - - - - - - 27.0 1011.8 -
28/09:30am ESE 10 11 - - - - - - - 27.3 1012.2 -
28/09:00am ESE 12 14 - - - - - - - 26.8 1012.1 -
28/08:30am ESE 11 13 - - - - - - - 27.2 1012.1 -
28/08:00am ESE 12 13 - - - - - - - 27.1 1011.9 -
28/07:30am ESE 11 13 - - - - - - - 27.2 1011.5 -
28/07:00am ESE 11 13 - - - - - - - 26.9 1011.2 -
28/06:30am E 11 13 - - - - - - - 26.9 1010.7 -
28/06:00am E 11 13 - - - - - - - 26.9 1010.2 -
28/05:30am E 12 14 - - - - - - - 26.8 1009.7 -
28/05:00am E 11 14 - - - - - - - 26.7 1009.4 -
28/04:30am ESE 11 12 - - - - - - - 26.8 1009.5 -
28/04:00am ESE 12 14 - - - - - - - 26.8 1009.6 -

Other formats

Comma delimited format used in spreadsheet applications
http://www.bom.gov.au/fwo/IDQ60701/IDQ60701.95288.axf

JavaScript Object Notation format (JSON) in row-major order
http://www.bom.gov.au/fwo/IDQ60701/IDQ60701.95288.json

Data quality

Most of these data are generated automatically and are frequently updated. Quality checks on data are not normally performed. It is possible for incorrect values to appear. Refer to information at About Latest Weather Observations and please check the disclaimer before using these data.